smartresponder.ru alexa rank chart, smartresponder.ru alexa rank daily changes

smartresponder.ru alexa rank chart, smartresponder.ru alexa rank daily changes

smartresponder.ru
Actual rank:
276 836

RANK HISTORY

Date Rank Diff
2017/06/29 276 836 +2 260
2017/06/28 274 576 +3 285
2017/06/27 271 291 -2 687
2017/06/26 273 978 +151
2017/06/25 273 827 +5 813
2017/06/24 268 014 -845
2017/06/23 268 859 -829
2017/06/22 269 688 +3 770
2017/06/21 265 918 -679
2017/06/20 266 597 -1 938
2017/06/19 268 535 +3 106
2017/06/18 265 429 -2 618
2017/06/17 268 047 +3 348
2017/06/16 264 699 +2 723
2017/06/15 261 976 +2 908
2017/06/14 259 068 -7 661
2017/06/13 266 729 -7 067
2017/06/12 273 796 +1 147
2017/06/11 272 649 -4 896
2017/06/10 277 545 +37
2017/06/09 277 508 +4 507
2017/06/08 273 001 -412
2017/06/07 273 413 +626
2017/06/06 272 787 +2 548
2017/06/05 270 239 +2 050
2017/06/04 268 189 +1 593
2017/06/03 266 596 +7 187
2017/06/02 259 409 +3 875
2017/06/01 255 534 -3 466
2017/05/31 259 000 +183
2017/05/30 258 817 +1 536
2017/05/29 257 281 -2 013
2017/05/28 259 294 -2 798
2017/05/27 262 092 +2 087
2017/05/26 260 005 +3 545
2017/05/25 256 460 -2 129
2017/05/24 258 589 +4 641
2017/05/23 253 948 -211
2017/05/22 254 159 -4 525
2017/05/21 258 684 +384
2017/05/20 258 300 -320
2017/05/19 258 620 +712
2017/05/18 257 908 +3 395
2017/05/17 254 513 +4 927
2017/05/16 249 586 -1 772
2017/05/15 251 358 +506
2017/05/14 250 852 +6 707
2017/05/13 244 145 +1 468
2017/05/12 242 677 +5 097
2017/05/11 237 580 +1 121
2017/05/10 236 459 +1 028
2017/05/09 235 431 -1 072
2017/05/08 236 503 -772
2017/05/07 237 275 -1 758
2017/05/06 239 033 -22
2017/05/05 239 055 +1 258
2017/05/04 237 797 +5 079
2017/05/03 232 718 -3 291
2017/05/02 236 009 -1 501
2017/05/01 237 510 +2 375
2017/04/30 235 135

WIDGET FOR YOUR SITE

DOMAINS WITH THE NEAREST RANK

Domain Rank
howtothisandthat.com 276 831
snowjoe.com 276 832
saudebelezaja.com 276 833
365ppp.over-blog.com 276 834
francetourisme.fr 276 835
smartresponder.ru 276 836
dailydressme.com 276 837
nichesiteproject.com 276 838
atspace.cc 276 839
istarski.hr 276 840
xxlpornoteen.com 276 841

DOMAINS WITH THE NEAREST RANK BY TLD .ru

Domain Rank
artyx.ru 276 728
bestvideohd.ru 276 762
stihinasheylyubvi.ru 276 786
uh.ru 276 795
tradebenefit.ru 276 828
smartresponder.ru 276 836
stels-rf.ru 276 889
omgau.ru 276 921
onminecraft.ru 276 948
autocraft-kzn.ru 276 952
ruxox.ru 276 961